createdAt,value
2023-01-08T00:01:14.878Z,8.80
2023-01-08T00:03:50.035Z,8.90
2023-01-08T00:06:21.236Z,7.90
2023-01-08T00:08:49.195Z,7.70
2023-01-08T00:11:17.788Z,7.00
2023-01-08T00:13:45.727Z,8.50
2023-01-08T00:16:16.871Z,8.90
2023-01-08T00:18:46.507Z,8.20
2023-01-08T00:21:14.426Z,8.50
2023-01-08T00:23:42.375Z,8.40
2023-01-08T00:26:11.566Z,7.70
2023-01-08T00:28:40.290Z,8.50
2023-01-08T00:31:10.448Z,9.80
2023-01-08T00:33:38.637Z,8.50
2023-01-08T00:36:12.588Z,8.20
2023-01-08T00:38:41.433Z,8.40
2023-01-08T00:41:09.815Z,10.10
2023-01-08T00:43:37.738Z,8.50
2023-01-08T00:46:06.857Z,8.90
2023-01-08T00:48:38.696Z,10.80
2023-01-08T00:51:08.704Z,8.50
2023-01-08T00:53:38.236Z,8.50
2023-01-08T00:56:09.024Z,8.90
2023-01-08T00:58:37.359Z,8.40
2023-01-08T01:01:15.480Z,9.70
2023-01-08T01:03:43.472Z,8.70
2023-01-08T01:06:13.272Z,8.00
2023-01-08T01:08:41.322Z,8.40
2023-01-08T01:11:20.449Z,10.30
2023-01-08T01:13:48.629Z,9.10
2023-01-08T01:16:17.071Z,8.90
2023-01-08T01:18:45.071Z,9.50
2023-01-08T01:21:22.976Z,9.10
2023-01-08T01:23:53.544Z,8.20
2023-01-08T01:26:22.327Z,9.70
2023-01-08T01:28:52.625Z,10.20
2023-01-08T01:31:21.271Z,8.60
2023-01-08T01:33:49.230Z,9.00
2023-01-08T01:36:19.298Z,10.10
2023-01-08T01:38:49.431Z,9.60
2023-01-08T01:41:29.453Z,8.90
2023-01-08T01:44:00.542Z,12.90
2023-01-08T01:46:37.525Z,14.70
2023-01-08T01:49:15.848Z,11.90
2023-01-08T01:51:53.613Z,11.30
2023-01-08T01:54:22.643Z,13.70
2023-01-08T01:56:50.799Z,15.40
2023-01-08T01:59:18.748Z,13.10
2023-01-08T02:01:47.065Z,12.50
2023-01-08T02:04:15.261Z,11.40
2023-01-08T02:06:54.530Z,11.40
2023-01-08T02:09:42.099Z,12.50
2023-01-08T02:12:31.072Z,11.70
2023-01-08T02:15:24.329Z,13.00
2023-01-08T02:18:39.788Z,11.80
2023-01-08T02:21:16.271Z,11.50
2023-01-08T02:24:10.451Z,13.40
2023-01-08T02:26:38.719Z,10.40
2023-01-08T02:29:10.011Z,11.60
2023-01-08T02:31:41.056Z,11.90
2023-01-08T02:34:10.705Z,11.60
2023-01-08T02:36:52.473Z,12.50
2023-01-08T02:39:38.339Z,11.70
2023-01-08T02:42:43.031Z,13.00
2023-01-08T02:45:25.815Z,13.80
2023-01-08T02:47:59.754Z,14.40
2023-01-08T02:50:37.668Z,13.00
2023-01-08T02:53:19.321Z,12.20
2023-01-08T02:55:52.290Z,12.90
2023-01-08T02:58:23.335Z,13.60
2023-01-08T03:00:52.224Z,13.00
2023-01-08T03:03:27.222Z,12.40
2023-01-08T03:06:03.000Z,11.70
2023-01-08T03:08:34.491Z,12.70
2023-01-08T03:11:11.797Z,12.40
2023-01-08T03:13:54.716Z,14.90
2023-01-08T03:16:49.003Z,13.30
2023-01-08T03:19:26.090Z,15.20
2023-01-08T03:21:54.125Z,14.30
2023-01-08T03:24:25.939Z,15.10
2023-01-08T03:26:58.530Z,14.30
2023-01-08T03:29:27.868Z,13.70
2023-01-08T03:32:03.057Z,14.40
2023-01-08T03:34:33.070Z,14.00
2023-01-08T03:37:04.671Z,14.50
2023-01-08T03:39:45.159Z,13.90
2023-01-08T03:42:16.584Z,15.00
2023-01-08T03:44:44.556Z,14.60
2023-01-08T03:47:14.460Z,14.30
2023-01-08T03:49:44.476Z,13.20
2023-01-08T03:52:26.912Z,14.30
2023-01-08T03:54:55.753Z,14.40
2023-01-08T03:57:23.722Z,14.60
2023-01-08T03:59:51.734Z,14.00
2023-01-08T04:02:19.786Z,14.10
2023-01-08T04:04:48.314Z,15.00
2023-01-08T04:07:16.349Z,14.40
2023-01-08T04:09:44.183Z,14.00
2023-01-08T04:12:12.164Z,15.90
2023-01-08T04:14:40.028Z,13.50
2023-01-08T04:17:12.181Z,13.40
2023-01-08T04:19:40.016Z,14.20
2023-01-08T04:22:10.874Z,13.20
2023-01-08T04:24:38.852Z,14.30
2023-01-08T04:27:06.726Z,14.00
2023-01-08T04:29:34.628Z,13.50
2023-01-08T04:32:02.549Z,13.70
2023-01-08T04:34:30.431Z,16.70
2023-01-08T04:36:58.816Z,14.40
2023-01-08T04:39:26.735Z,14.00
2023-01-08T04:41:54.660Z,14.00
2023-01-08T04:44:22.891Z,13.70
2023-01-08T04:46:50.805Z,14.40
2023-01-08T04:49:18.935Z,13.30
2023-01-08T04:51:46.878Z,14.70
2023-01-08T04:54:14.804Z,13.60
2023-01-08T04:56:42.646Z,13.80
2023-01-08T04:59:10.536Z,14.50
2023-01-08T05:01:38.558Z,16.00
2023-01-08T05:04:06.472Z,18.00
2023-01-08T05:06:34.353Z,17.00
2023-01-08T05:09:02.939Z,16.80
2023-01-08T05:11:30.844Z,15.50
2023-01-08T05:13:58.710Z,16.80
2023-01-08T05:16:26.585Z,15.20
2023-01-08T05:18:54.403Z,18.30
2023-01-08T05:21:22.292Z,16.10
2023-01-08T05:24:22.455Z,19.40
2023-01-08T05:26:50.331Z,15.50
2023-01-08T05:29:18.404Z,15.40
2023-01-08T05:31:46.400Z,15.70
2023-01-08T05:34:14.285Z,16.60
2023-01-08T05:36:43.318Z,15.30
2023-01-08T05:39:11.280Z,15.10
2023-01-08T05:41:39.547Z,16.30
2023-01-08T05:44:07.657Z,16.00
2023-01-08T05:46:35.802Z,16.10
2023-01-08T05:49:03.889Z,17.00
2023-01-08T05:51:31.778Z,17.50
2023-01-08T05:53:59.650Z,18.10
2023-01-08T05:56:27.549Z,18.70
2023-01-08T05:58:56.054Z,20.80
2023-01-08T06:01:24.025Z,19.50
2023-01-08T06:03:56.053Z,20.60
2023-01-08T06:06:24.049Z,19.90
2023-01-08T06:08:52.148Z,18.90
2023-01-08T06:11:20.120Z,18.60
2023-01-08T06:13:48.162Z,16.40
2023-01-08T06:16:17.587Z,18.50
2023-01-08T06:18:45.759Z,20.40
2023-01-08T06:21:13.927Z,19.20
2023-01-08T06:23:41.911Z,20.60
2023-01-08T06:26:10.216Z,20.90
2023-01-08T06:28:38.228Z,19.40
2023-01-08T06:31:06.268Z,18.60
2023-01-08T06:33:34.245Z,19.60
2023-01-08T06:36:04.633Z,18.90
2023-01-08T06:38:34.753Z,18.80
2023-01-08T06:41:08.608Z,19.70
2023-01-08T06:43:37.869Z,19.90
2023-01-08T06:46:07.114Z,19.80
2023-01-08T06:48:35.931Z,22.70
2023-01-08T06:51:04.978Z,22.00
2023-01-08T06:53:32.972Z,20.20
2023-01-08T06:56:03.343Z,20.20
2023-01-08T06:58:31.576Z,23.50
2023-01-08T07:00:59.658Z,22.50
2023-01-08T07:03:27.712Z,22.80
2023-01-08T07:05:56.632Z,19.70
2023-01-08T07:08:24.783Z,23.40
2023-01-08T07:10:52.696Z,21.50
2023-01-08T07:13:22.765Z,23.20
2023-01-08T07:15:50.852Z,22.10
2023-01-08T07:18:18.950Z,21.00
2023-01-08T07:20:48.850Z,22.50
2023-01-08T07:23:16.810Z,20.50
2023-01-08T07:25:44.805Z,23.70
2023-01-08T07:28:13.362Z,21.90
2023-01-08T07:30:41.520Z,21.70
2023-01-08T07:33:09.511Z,20.70
2023-01-08T07:35:39.079Z,24.50
2023-01-08T07:38:07.185Z,21.70
2023-01-08T07:40:35.269Z,22.00
2023-01-08T07:43:04.833Z,21.20
2023-01-08T07:45:32.927Z,20.90
2023-01-08T07:48:00.989Z,19.40
2023-01-08T07:50:29.360Z,21.40
2023-01-08T07:53:01.498Z,21.00
2023-01-08T07:55:30.936Z,24.10
2023-01-08T07:57:59.430Z,20.40
2023-01-08T08:00:27.611Z,20.60
2023-01-08T08:02:55.689Z,20.60
2023-01-08T08:05:23.985Z,21.40
2023-01-08T08:07:51.902Z,18.00
2023-01-08T08:10:19.879Z,21.80
2023-01-08T08:12:48.000Z,19.80
2023-01-08T08:15:16.089Z,18.90
2023-01-08T08:17:47.905Z,20.60
2023-01-08T08:20:16.285Z,18.00
2023-01-08T08:22:44.853Z,17.40
2023-01-08T08:25:15.311Z,19.70
2023-01-08T08:27:44.114Z,18.10
2023-01-08T08:30:13.144Z,16.80
2023-01-08T08:32:41.095Z,17.20
2023-01-08T08:35:09.864Z,16.50
2023-01-08T08:37:37.861Z,18.60
2023-01-08T08:40:06.496Z,16.40
2023-01-08T08:42:34.476Z,20.10
2023-01-08T08:45:02.532Z,18.50
2023-01-08T08:47:30.525Z,16.70
2023-01-08T08:49:58.540Z,18.70
2023-01-08T08:52:26.434Z,18.40
2023-01-08T08:54:54.335Z,17.00
2023-01-08T08:57:25.999Z,19.40
2023-01-08T08:59:53.965Z,19.10
2023-01-08T09:02:22.151Z,20.70
2023-01-08T09:04:50.240Z,20.50
2023-01-08T09:07:18.271Z,22.10
2023-01-08T09:09:46.282Z,21.20
2023-01-08T09:12:14.253Z,20.30
2023-01-08T09:14:42.253Z,18.50
2023-01-08T09:17:10.255Z,19.00
2023-01-08T09:19:38.877Z,17.90
2023-01-08T09:22:06.988Z,18.30
2023-01-08T09:24:34.894Z,16.80
2023-01-08T09:27:03.025Z,18.00
2023-01-08T09:29:31.000Z,18.30
2023-01-08T09:32:00.619Z,16.50
2023-01-08T09:34:29.973Z,16.10
2023-01-08T09:36:57.925Z,16.80
2023-01-08T09:39:25.855Z,17.40
2023-01-08T09:41:55.319Z,16.40
2023-01-08T09:44:29.904Z,20.00
2023-01-08T09:46:58.698Z,24.50
2023-01-08T09:49:38.676Z,29.00
2023-01-08T09:52:09.317Z,29.30
2023-01-08T09:54:37.287Z,25.20
2023-01-08T09:57:05.608Z,19.70
2023-01-08T09:59:33.697Z,20.50
2023-01-08T10:02:01.768Z,20.30
2023-01-08T10:04:30.147Z,18.50
2023-01-08T10:07:11.791Z,21.00
2023-01-08T10:09:40.314Z,19.40
2023-01-08T10:12:12.785Z,20.70
2023-01-08T10:14:48.118Z,19.80
2023-01-08T10:17:37.471Z,24.90
2023-01-08T10:20:20.904Z,22.80
2023-01-08T10:22:50.055Z,21.70
2023-01-08T10:25:23.271Z,21.10
2023-01-08T10:28:00.155Z,21.40
2023-01-08T10:30:30.828Z,22.60
2023-01-08T10:33:06.516Z,20.50
2023-01-08T10:35:40.826Z,19.50
2023-01-08T10:38:32.785Z,16.70
2023-01-08T10:41:09.229Z,18.40
2023-01-08T10:43:49.670Z,17.70
2023-01-08T10:46:36.570Z,18.60
2023-01-08T10:49:06.549Z,19.40
2023-01-08T10:51:34.635Z,17.70
2023-01-08T10:54:15.545Z,19.20
2023-01-08T10:56:44.952Z,18.80
2023-01-08T10:59:23.293Z,18.10
2023-01-08T11:01:55.912Z,18.90
2023-01-08T11:04:32.498Z,19.10
2023-01-08T11:07:03.121Z,22.30
2023-01-08T11:09:34.097Z,23.70
2023-01-08T11:12:02.091Z,22.10
2023-01-08T11:14:36.544Z,28.20
2023-01-08T11:17:11.291Z,37.50
2023-01-08T11:19:39.988Z,36.20
2023-01-08T11:22:20.176Z,34.00
2023-01-08T11:24:50.363Z,29.60
2023-01-08T11:27:37.060Z,25.60
2023-01-08T11:30:12.222Z,22.50
2023-01-08T11:32:42.118Z,21.00
2023-01-08T11:35:31.353Z,20.30
2023-01-08T11:38:02.205Z,19.20
2023-01-08T11:40:36.181Z,20.90
2023-01-08T11:43:30.716Z,18.30
2023-01-08T11:46:17.816Z,18.70
2023-01-08T11:48:51.673Z,19.00
2023-01-08T11:51:41.538Z,24.20
2023-01-08T11:54:47.189Z,22.00
2023-01-08T11:57:33.722Z,20.10
2023-01-08T12:00:38.231Z,22.00
2023-01-08T12:06:44.165Z,19.80
2023-01-08T12:09:36.480Z,24.80
2023-01-08T12:12:33.287Z,23.00
2023-01-08T12:15:10.233Z,23.90
2023-01-08T12:18:13.532Z,26.70
2023-01-08T12:20:59.318Z,27.10
2023-01-08T12:23:45.692Z,30.70
2023-01-08T12:26:25.930Z,28.50
2023-01-08T12:29:15.317Z,27.00
2023-01-08T12:32:22.212Z,22.50
2023-01-08T12:35:29.414Z,30.70
2023-01-08T12:38:29.718Z,28.40
2023-01-08T12:41:21.100Z,32.10
2023-01-08T12:44:05.643Z,32.00
2023-01-08T12:46:39.514Z,29.90
2023-01-08T12:49:11.131Z,32.00
2023-01-08T12:51:56.272Z,31.30
2023-01-08T12:54:26.981Z,46.80
2023-01-08T12:57:03.877Z,57.50
2023-01-08T12:59:45.578Z,60.50
2023-01-08T13:02:49.822Z,60.40
2023-01-08T13:05:21.018Z,46.80
2023-01-08T13:07:53.948Z,40.50
2023-01-08T13:10:37.167Z,34.50
2023-01-08T13:13:07.429Z,32.90
2023-01-08T13:15:36.452Z,35.80
2023-01-08T13:18:15.322Z,30.60
2023-01-08T13:20:54.154Z,32.70
2023-01-08T13:23:26.170Z,36.30
2023-01-08T13:25:57.348Z,35.90
2023-01-08T13:28:25.181Z,35.50
2023-01-08T13:30:55.826Z,36.90
2023-01-08T13:33:36.242Z,38.30
2023-01-08T13:36:13.120Z,29.90
2023-01-08T13:38:41.275Z,27.30
2023-01-08T13:41:56.634Z,26.10
2023-01-08T13:44:34.564Z,26.20
2023-01-08T13:47:15.632Z,30.00
2023-01-08T13:49:47.155Z,31.30
2023-01-08T13:52:41.125Z,27.80
2023-01-08T13:55:36.968Z,27.70
2023-01-08T13:58:12.161Z,28.00
2023-01-08T14:00:43.064Z,37.70
2023-01-08T14:03:31.410Z,32.40
2023-01-08T14:06:22.749Z,38.80
2023-01-08T14:08:59.120Z,32.00
2023-01-08T14:11:42.544Z,30.80
2023-01-08T14:14:16.176Z,29.80
2023-01-08T14:16:45.156Z,31.00
2023-01-08T14:19:22.481Z,28.00
2023-01-08T14:21:52.545Z,26.20
2023-01-08T14:24:23.555Z,27.90
2023-01-08T14:26:57.644Z,28.70
2023-01-08T14:29:32.904Z,28.50
2023-01-08T14:32:01.482Z,35.20
2023-01-08T14:34:31.891Z,35.60
2023-01-08T14:36:59.807Z,33.00
2023-01-08T14:39:35.602Z,34.00
2023-01-08T14:42:29.219Z,41.00
2023-01-08T14:45:00.182Z,42.10
2023-01-08T14:47:39.066Z,30.70
2023-01-08T14:50:07.933Z,24.50
2023-01-08T14:52:40.541Z,23.50
2023-01-08T14:55:15.476Z,29.80
2023-01-08T14:57:45.901Z,25.20
2023-01-08T15:00:21.463Z,23.90
2023-01-08T15:02:49.880Z,18.40
2023-01-08T15:05:26.003Z,18.80
2023-01-08T15:08:25.130Z,21.30
2023-01-08T15:11:02.299Z,17.10
2023-01-08T15:13:34.624Z,22.10
2023-01-08T15:16:11.533Z,22.60
2023-01-08T15:18:46.078Z,21.30
2023-01-08T15:21:22.439Z,21.00
2023-01-08T15:23:54.782Z,20.40
2023-01-08T15:26:23.592Z,18.20
2023-01-08T15:28:53.826Z,22.70
2023-01-08T15:31:30.480Z,23.90
2023-01-08T15:34:00.553Z,29.30
2023-01-08T15:36:28.482Z,37.60
2023-01-08T15:38:56.313Z,43.40
2023-01-08T15:41:43.058Z,36.10
2023-01-08T15:44:15.293Z,27.70
2023-01-08T15:46:43.288Z,29.00
2023-01-08T15:49:11.208Z,27.10
2023-01-08T15:51:45.259Z,23.70
2023-01-08T15:54:13.797Z,22.30
2023-01-08T15:56:41.905Z,20.70
2023-01-08T15:59:09.961Z,23.50
2023-01-08T16:01:38.568Z,23.40
2023-01-08T16:04:06.581Z,19.50
2023-01-08T16:06:36.174Z,20.80
2023-01-08T16:09:04.087Z,18.50
2023-01-08T16:11:32.000Z,20.50
2023-01-08T16:13:59.887Z,21.80
2023-01-08T16:16:27.827Z,21.40
2023-01-08T16:18:55.890Z,20.50
2023-01-08T16:21:23.767Z,38.50
2023-01-08T16:23:51.631Z,40.00
2023-01-08T16:26:19.615Z,28.70
2023-01-08T16:28:47.954Z,20.30
2023-01-08T16:31:16.168Z,18.20
2023-01-08T16:33:44.056Z,20.90
2023-01-08T16:36:11.940Z,21.20
2023-01-08T16:38:39.800Z,22.10
2023-01-08T16:41:08.044Z,25.30
2023-01-08T16:43:40.842Z,24.20
2023-01-08T16:46:13.330Z,28.60
2023-01-08T16:48:42.602Z,26.80
2023-01-08T16:51:11.331Z,28.20
2023-01-08T16:53:39.803Z,27.00
2023-01-08T16:56:09.177Z,24.60
2023-01-08T16:58:37.172Z,23.40
2023-01-08T17:01:12.402Z,29.70
2023-01-08T17:03:40.555Z,29.80
2023-01-08T17:06:11.288Z,26.00
2023-01-08T17:08:42.455Z,26.30
2023-01-08T17:11:15.151Z,29.90
2023-01-08T17:13:43.564Z,32.60
2023-01-08T17:16:14.551Z,29.70
2023-01-08T17:18:42.716Z,28.00
2023-01-08T17:21:13.320Z,29.90
2023-01-08T17:23:41.768Z,30.60
2023-01-08T17:26:13.886Z,28.20
2023-01-08T17:28:41.797Z,27.00
2023-01-08T17:31:12.683Z,29.70
2023-01-08T17:33:40.900Z,27.10
2023-01-08T17:36:11.053Z,27.70
2023-01-08T17:38:39.375Z,27.10
2023-01-08T17:41:09.206Z,23.00
2023-01-08T17:43:38.495Z,25.70
2023-01-08T17:46:07.351Z,27.70
2023-01-08T17:48:35.339Z,26.50
2023-01-08T17:51:08.598Z,27.50
2023-01-08T17:53:37.217Z,26.80
2023-01-08T17:56:06.459Z,25.10
2023-01-08T17:58:34.681Z,26.50
2023-01-08T18:01:02.593Z,25.20
2023-01-08T18:03:30.529Z,26.00
2023-01-08T18:05:58.508Z,24.60
2023-01-08T18:08:26.578Z,24.30
2023-01-08T18:10:54.398Z,28.10
2023-01-08T18:13:22.400Z,27.70
2023-01-08T18:15:50.272Z,26.10
2023-01-08T18:18:18.107Z,36.60
2023-01-08T18:20:45.929Z,29.10
2023-01-08T18:23:13.736Z,27.00
2023-01-08T18:25:41.672Z,26.80
2023-01-08T18:28:09.576Z,30.00
2023-01-08T18:30:37.653Z,30.80
2023-01-08T18:33:05.650Z,28.40
2023-01-08T18:35:33.575Z,26.50
2023-01-08T18:38:01.540Z,32.60
2023-01-08T18:40:29.835Z,25.30
2023-01-08T18:42:57.753Z,26.00
2023-01-08T18:45:25.610Z,23.50
2023-01-08T18:47:53.800Z,26.30
2023-01-08T18:50:21.739Z,24.30
2023-01-08T18:52:49.640Z,27.00
2023-01-08T18:55:17.565Z,24.80
2023-01-08T18:57:45.530Z,24.00
2023-01-08T19:00:13.951Z,25.50
2023-01-08T19:02:41.815Z,25.90
2023-01-08T19:05:10.359Z,29.20
2023-01-08T19:07:38.448Z,28.10
2023-01-08T19:10:06.519Z,24.40
2023-01-08T19:12:35.131Z,30.30
2023-01-08T19:15:03.158Z,29.50
2023-01-08T19:17:31.922Z,30.60
2023-01-08T19:20:00.039Z,22.70
2023-01-08T19:22:28.696Z,22.00
2023-01-08T19:24:56.823Z,21.10
2023-01-08T19:27:24.996Z,19.50
2023-01-08T19:29:52.957Z,22.20
2023-01-08T19:32:21.060Z,23.10
2023-01-08T19:34:49.007Z,23.20
2023-01-08T19:37:17.206Z,22.40
2023-01-08T19:39:45.482Z,24.30
2023-01-08T19:42:51.541Z,25.20
2023-01-08T19:45:19.541Z,25.40
2023-01-08T19:47:47.417Z,21.40
2023-01-08T19:50:15.356Z,24.40
2023-01-08T19:52:43.408Z,29.40
2023-01-08T19:55:11.358Z,35.10
2023-01-08T19:57:39.247Z,27.10
2023-01-08T20:00:07.976Z,27.30
2023-01-08T20:02:39.771Z,26.80
2023-01-08T20:05:09.296Z,27.40
2023-01-08T20:07:37.252Z,29.50
2023-01-08T20:10:05.977Z,26.40
2023-01-08T20:12:36.263Z,23.80
2023-01-08T20:15:05.656Z,24.60
2023-01-08T20:17:33.593Z,26.10
2023-01-08T20:20:01.493Z,24.00
2023-01-08T20:22:31.129Z,27.70
2023-01-08T20:24:59.063Z,26.70
2023-01-08T20:27:27.045Z,30.20
2023-01-08T20:29:55.015Z,29.50
2023-01-08T20:32:23.597Z,26.30
2023-01-08T20:34:51.538Z,23.70
2023-01-08T20:37:19.485Z,27.30
2023-01-08T20:39:47.562Z,31.50
2023-01-08T20:42:22.004Z,25.60
2023-01-08T20:44:55.445Z,27.00
2023-01-08T20:47:23.558Z,26.70
2023-01-08T20:49:51.583Z,26.30
2023-01-08T20:52:21.859Z,27.10
2023-01-08T20:54:49.776Z,25.80
2023-01-08T20:57:17.732Z,24.90
2023-01-08T20:59:45.711Z,25.40
2023-01-08T21:02:13.830Z,25.80
2023-01-08T21:04:43.769Z,22.50
2023-01-08T21:07:12.135Z,24.40
2023-01-08T21:09:40.483Z,22.40
2023-01-08T21:12:08.664Z,24.60
2023-01-08T21:14:36.587Z,22.10
2023-01-08T21:17:04.624Z,24.50
2023-01-08T21:19:32.542Z,24.00
2023-01-08T21:22:00.403Z,26.30
2023-01-08T21:24:28.400Z,23.20
2023-01-08T21:26:56.382Z,21.30
2023-01-08T21:29:24.847Z,21.40
2023-01-08T21:31:52.775Z,20.10
2023-01-08T21:34:21.553Z,23.50
2023-01-08T21:36:49.511Z,21.00
2023-01-08T21:39:17.480Z,20.00
2023-01-08T21:42:03.732Z,21.20
2023-01-08T21:44:50.584Z,21.60
2023-01-08T21:47:18.604Z,25.90
2023-01-08T21:49:46.595Z,23.80
2023-01-08T21:52:33.614Z,24.80
2023-01-08T21:55:02.091Z,27.10
2023-01-08T21:57:30.069Z,25.20
2023-01-08T21:59:58.028Z,22.00
2023-01-08T22:02:25.939Z,25.10
2023-01-08T22:04:56.026Z,22.20
2023-01-08T22:07:25.203Z,20.30
2023-01-08T22:09:53.350Z,23.10
2023-01-08T22:12:22.926Z,26.10
2023-01-08T22:14:53.530Z,32.50
2023-01-08T22:17:26.044Z,30.00
2023-01-08T22:19:54.069Z,29.30
2023-01-08T22:22:22.085Z,24.90
2023-01-08T22:24:53.096Z,25.20
2023-01-08T22:27:22.155Z,25.00
2023-01-08T22:29:50.260Z,25.20
2023-01-08T22:32:18.258Z,25.30
2023-01-08T22:34:46.509Z,28.50
2023-01-08T22:37:14.484Z,23.90
2023-01-08T22:39:42.461Z,23.90
2023-01-08T22:42:10.417Z,26.30
2023-01-08T22:44:38.356Z,27.10
2023-01-08T22:47:08.457Z,27.20
2023-01-08T22:49:37.754Z,25.10
2023-01-08T22:52:06.314Z,23.80
2023-01-08T22:54:34.207Z,23.70
2023-01-08T22:57:02.093Z,26.70
2023-01-08T22:59:29.947Z,23.10
2023-01-08T23:01:57.863Z,20.90
2023-01-08T23:04:26.044Z,29.50
2023-01-08T23:06:53.957Z,37.60
2023-01-08T23:09:21.861Z,36.90
2023-01-08T23:11:49.704Z,34.30
2023-01-08T23:14:17.607Z,32.60
2023-01-08T23:16:45.695Z,28.30
2023-01-08T23:19:14.042Z,28.40
2023-01-08T23:21:42.024Z,27.70
2023-01-08T23:24:13.164Z,24.50
2023-01-08T23:26:42.255Z,26.70
2023-01-08T23:29:10.861Z,32.10
2023-01-08T23:31:39.103Z,29.30
2023-01-08T23:34:07.615Z,30.60
2023-01-08T23:36:35.529Z,31.50
2023-01-08T23:39:04.367Z,33.30
2023-01-08T23:41:34.917Z,31.80
2023-01-08T23:44:14.830Z,24.80
2023-01-08T23:46:43.053Z,27.80
2023-01-08T23:49:11.711Z,22.00
2023-01-08T23:51:42.293Z,24.10
2023-01-08T23:54:11.479Z,23.70
2023-01-08T23:56:40.428Z,21.90
2023-01-08T23:59:08.426Z,18.90
